Time;durP1;ratioP1;P1;durP2;ratioP2;P2;SDS_P1;SDS_P2;PMS_P1;PMS_P2;Temp;Humidity;BMP_temperature;BMP_pressure;BME280_temperature;BME280_humidity;BME280_pressure;Samples;Min_cycle;Max_cycle;Signal;HPM_P1;HPM_P2
2022/09/17 00:02:05;;;;;;;10.98;1.92;;;;;;;;;;5016903;28;20030;-63
2022/09/17 00:04:32;;;;;;;8.27;1.60;;;;;;;;;;5002114;28;20074;-63
2022/09/17 00:06:58;;;;;;;5.68;1.50;;;;;;;;;;5007713;28;20120;-63
2022/09/17 00:09:24;;;;;;;5.63;1.40;;;;;;;;;;4996243;28;20050;-63
2022/09/17 00:11:50;;;;;;;7.15;1.50;;;;;;;;;;5025922;28;20030;-63
2022/09/17 00:14:17;;;;;;;5.82;1.90;;;;;;;;;;5004510;28;20042;-63
2022/09/17 00:16:45;;;;;;;8.02;1.77;;;;;;;;;;5011404;28;20093;-63
2022/09/17 00:19:19;;;;;;;6.38;1.65;;;;;;;;;;4997207;28;20508;-63
2022/09/17 00:21:45;;;;;;;4.57;1.50;;;;;;;;;;4993678;28;20022;-63
2022/09/17 00:24:12;;;;;;;6.20;1.60;;;;;;;;;;5000775;28;20030;-63
2022/09/17 00:26:38;;;;;;;7.68;1.95;;;;;;;;;;5000972;28;20034;-63
2022/09/17 00:29:05;;;;;;;4.03;1.67;;;;;;;;;;5010033;28;20096;-63
2022/09/17 00:31:32;;;;;;;7.13;1.48;;;;;;;;;;4996031;28;20023;-63
2022/09/17 00:33:58;;;;;;;3.72;1.30;;;;;;;;;;5015193;28;20411;-63
2022/09/17 00:36:25;;;;;;;9.65;1.58;;;;;;;;;;5013427;28;20510;-63
2022/09/17 00:38:52;;;;;;;5.53;2.17;;;;;;;;;;4992852;28;20026;-63
2022/09/17 00:41:18;;;;;;;4.18;1.70;;;;;;;;;;5000018;28;20038;-63
2022/09/17 00:43:49;;;;;;;3.70;1.48;;;;;;;;;;5011054;28;20026;-63
2022/09/17 00:46:18;;;;;;;3.40;1.50;;;;;;;;;;5012235;28;20409;-63
2022/09/17 00:48:45;;;;;;;6.53;1.77;;;;;;;;;;5012002;28;20026;-63
2022/09/17 00:51:13;;;;;;;5.88;2.42;;;;;;;;;;5012270;28;20080;-63
2022/09/17 00:53:39;;;;;;;9.07;1.98;;;;;;;;;;5011780;28;20030;-63
2022/09/17 00:56:19;;;;;;;3.97;1.23;;;;;;;;;;5015321;28;20026;-63
2022/09/17 00:58:46;;;;;;;5.65;1.60;;;;;;;;;;4992571;28;20037;-63
2022/09/17 01:01:13;;;;;;;4.90;1.95;;;;;;;;;;4992869;28;20499;-63
2022/09/17 01:03:39;;;;;;;9.05;1.88;;;;;;;;;;5008208;28;20053;-63
2022/09/17 01:06:26;;;;;;;5.68;1.77;;;;;;;;;;4998249;28;20176;-63
2022/09/17 01:09:21;;;;;;;2.10;1.13;;;;;;;;;;4998102;28;20479;-63
2022/09/17 01:11:50;;;;;;;5.88;1.55;;;;;;;;;;4993380;28;20533;-63
2022/09/17 01:14:39;;;;;;;8.32;1.80;;;;;;;;;;5002989;28;20529;-63
2022/09/17 01:17:12;;;;;;;3.38;1.52;;;;;;;;;;5003957;28;20069;-63
2022/09/17 01:19:39;;;;;;;8.15;2.00;;;;;;;;;;4993271;28;20517;-63
2022/09/17 01:22:09;;;;;;;9.57;1.92;;;;;;;;;;5004803;28;20027;-63
2022/09/17 01:24:45;;;;;;;5.63;1.90;;;;;;;;;;4999285;28;20033;-63
2022/09/17 01:27:30;;;;;;;3.53;1.48;;;;;;;;;;4995674;28;20070;-63
2022/09/17 01:30:14;;;;;;;5.18;1.70;;;;;;;;;;5009747;28;20033;-63
2022/09/17 01:32:50;;;;;;;7.35;1.40;;;;;;;;;;4999864;28;20042;-63
2022/09/17 01:35:25;;;;;;;4.93;1.70;;;;;;;;;;5004852;28;20034;-63
2022/09/17 01:38:04;;;;;;;6.18;1.60;;;;;;;;;;4994125;28;20117;-63
2022/09/17 01:40:37;;;;;;;6.15;1.60;;;;;;;;;;5006075;28;20399;-63
2022/09/17 01:43:03;;;;;;;5.32;1.45;;;;;;;;;;5003356;28;20030;-63
2022/09/17 01:45:34;;;;;;;4.90;1.40;;;;;;;;;;5013710;28;20084;-63
2022/09/17 01:48:00;;;;;;;2.95;1.30;;;;;;;;;;5000180;28;20026;-63
2022/09/17 01:50:32;;;;;;;4.22;1.73;;;;;;;;;;5007975;28;20044;-63
2022/09/17 01:52:59;;;;;;;4.35;1.52;;;;;;;;;;5007946;28;20109;-63
2022/09/17 01:55:27;;;;;;;5.93;2.28;;;;;;;;;;5000200;28;20058;-63
2022/09/17 01:57:59;;;;;;;4.47;1.50;;;;;;;;;;5018062;28;20041;-63
2022/09/17 02:00:25;;;;;;;2.17;1.40;;;;;;;;;;5008231;28;20518;-63
2022/09/17 02:02:55;;;;;;;2.42;1.20;;;;;;;;;;5008798;28;20165;-63
2022/09/17 02:05:23;;;;;;;4.13;1.83;;;;;;;;;;5020168;28;20035;-63
2022/09/17 02:08:06;;;;;;;4.35;1.30;;;;;;;;;;4998840;28;20026;-63
2022/09/17 02:10:34;;;;;;;2.63;1.65;;;;;;;;;;5009775;28;20042;-63
2022/09/17 02:13:07;;;;;;;4.38;1.45;;;;;;;;;;5003265;28;20059;-63
2022/09/17 02:15:39;;;;;;;2.63;1.33;;;;;;;;;;5014589;28;20401;-63
2022/09/17 02:18:10;;;;;;;6.55;1.40;;;;;;;;;;5006027;28;20092;-63
2022/09/17 02:20:43;;;;;;;3.20;1.20;;;;;;;;;;5024683;28;20076;-63
2022/09/17 02:23:29;;;;;;;4.45;1.20;;;;;;;;;;5015593;28;20050;-63
2022/09/17 02:25:59;;;;;;;5.22;1.20;;;;;;;;;;5017074;28;20370;-63
2022/09/17 02:28:42;;;;;;;4.00;1.45;;;;;;;;;;5008042;28;20026;-63
2022/09/17 02:31:09;;;;;;;4.80;1.33;;;;;;;;;;4999656;28;20022;-63
2022/09/17 02:33:36;;;;;;;9.13;1.70;;;;;;;;;;5006400;28;20033;-63
2022/09/17 02:36:02;;;;;;;3.17;1.20;;;;;;;;;;5004377;28;20030;-63
2022/09/17 02:38:30;;;;;;;3.95;1.67;;;;;;;;;;5001980;28;20429;-63
2022/09/17 02:41:04;;;;;;;5.25;1.30;;;;;;;;;;5011500;28;20034;-63
2022/09/17 02:43:30;;;;;;;4.57;1.08;;;;;;;;;;5004820;28;20402;-63
2022/09/17 02:46:15;;;;;;;5.10;1.25;;;;;;;;;;5005580;28;20121;-63
2022/09/17 02:48:58;;;;;;;3.22;1.42;;;;;;;;;;5018176;28;20026;-63
2022/09/17 02:51:27;;;;;;;2.33;1.60;;;;;;;;;;5008238;28;20032;-63
2022/09/17 02:53:57;;;;;;;2.83;1.35;;;;;;;;;;5004340;28;20027;-63
2022/09/17 02:56:29;;;;;;;2.20;1.38;;;;;;;;;;5022477;28;20531;-63
2022/09/17 02:59:08;;;;;;;2.80;1.20;;;;;;;;;;5002780;28;20113;-63
2022/09/17 03:01:46;;;;;;;4.88;1.25;;;;;;;;;;5007752;28;20038;-63
2022/09/17 03:04:14;;;;;;;7.40;1.30;;;;;;;;;;4995269;28;20046;-63
2022/09/17 03:06:41;;;;;;;5.43;1.42;;;;;;;;;;5010684;28;20029;-63
2022/09/17 03:09:08;;;;;;;4.57;1.42;;;;;;;;;;4999813;28;20030;-63
2022/09/17 03:11:34;;;;;;;3.00;1.13;;;;;;;;;;5015188;28;20382;-63
2022/09/17 03:14:00;;;;;;;2.22;1.05;;;;;;;;;;4994382;28;20231;-63
2022/09/17 03:16:26;;;;;;;6.55;1.23;;;;;;;;;;5007324;28;20059;-63
2022/09/17 03:18:52;;;;;;;1.98;1.10;;;;;;;;;;4996845;28;20530;-63
2022/09/17 03:21:18;;;;;;;2.65;1.02;;;;;;;;;;5013463;28;20018;-63
2022/09/17 03:23:45;;;;;;;4.97;1.20;;;;;;;;;;5011569;28;20508;-63
2022/09/17 03:26:11;;;;;;;2.28;1.02;;;;;;;;;;5002237;28;20023;-63
2022/09/17 03:28:38;;;;;;;2.97;1.02;;;;;;;;;;5026949;28;20124;-63
2022/09/17 03:31:04;;;;;;;5.38;1.23;;;;;;;;;;5007565;28;20035;-63
2022/09/17 03:33:31;;;;;;;3.40;1.30;;;;;;;;;;5008352;28;20076;-63
2022/09/17 03:35:57;;;;;;;5.32;1.30;;;;;;;;;;5002748;28;20034;-63
2022/09/17 03:38:23;;;;;;;6.68;1.33;;;;;;;;;;5001036;28;20034;-63
2022/09/17 03:41:03;;;;;;;1.08;0.98;;;;;;;;;;5010076;28;20026;-63
2022/09/17 03:43:30;;;;;;;2.67;1.08;;;;;;;;;;4994099;28;20022;-64
2022/09/17 03:45:56;;;;;;;3.38;1.27;;;;;;;;;;5002450;28;20022;-64
2022/09/17 03:48:22;;;;;;;6.82;1.70;;;;;;;;;;5013085;28;20029;-64
2022/09/17 03:50:49;;;;;;;4.88;1.08;;;;;;;;;;5016725;28;20022;-64
2022/09/17 03:53:15;;;;;;;2.47;1.10;;;;;;;;;;4996822;28;20188;-64
2022/09/17 03:55:41;;;;;;;3.70;1.40;;;;;;;;;;5006840;28;20037;-63
2022/09/17 03:58:08;;;;;;;3.33;1.10;;;;;;;;;;5003117;28;20076;-64
2022/09/17 04:00:36;;;;;;;3.22;1.05;;;;;;;;;;5004871;28;20064;-63
2022/09/17 04:03:05;;;;;;;3.85;1.20;;;;;;;;;;5013396;28;20039;-63
2022/09/17 04:05:32;;;;;;;5.15;1.33;;;;;;;;;;5008520;28;20038;-63
2022/09/17 04:07:58;;;;;;;2.35;0.98;;;;;;;;;;5002531;28;20040;-68
2022/09/17 04:10:24;;;;;;;3.85;1.10;;;;;;;;;;5006712;28;20050;-63
2022/09/17 04:12:50;;;;;;;5.10;1.02;;;;;;;;;;4997779;28;20034;-63
2022/09/17 04:15:17;;;;;;;2.63;1.13;;;;;;;;;;5009961;28;20038;-63
2022/09/17 04:17:43;;;;;;;2.50;1.08;;;;;;;;;;5007567;28;20028;-63
2022/09/17 04:20:09;;;;;;;2.70;1.08;;;;;;;;;;5002741;28;20018;-63
2022/09/17 04:22:35;;;;;;;5.53;1.50;;;;;;;;;;4999629;28;20042;-63
2022/09/17 04:25:01;;;;;;;3.95;1.50;;;;;;;;;;5002721;28;20030;-63
2022/09/17 04:27:27;;;;;;;2.20;1.20;;;;;;;;;;5003536;28;20027;-63
2022/09/17 04:29:53;;;;;;;9.15;2.40;;;;;;;;;;5008667;28;20053;-63
2022/09/17 04:32:19;;;;;;;1.05;0.70;;;;;;;;;;5001523;28;20513;-63
2022/09/17 04:34:45;;;;;;;7.85;1.38;;;;;;;;;;5010616;28;20018;-63
2022/09/17 04:37:12;;;;;;;3.10;1.17;;;;;;;;;;5010593;28;20416;-63
2022/09/17 04:39:38;;;;;;;3.05;1.00;;;;;;;;;;5007580;28;20088;-63
2022/09/17 04:42:04;;;;;;;9.40;1.02;;;;;;;;;;5004309;28;20160;-63
2022/09/17 04:44:30;;;;;;;6.70;1.00;;;;;;;;;;5008859;28;20027;-63
2022/09/17 04:46:56;;;;;;;2.38;1.10;;;;;;;;;;5002162;28;20033;-63
2022/09/17 04:49:22;;;;;;;1.38;1.10;;;;;;;;;;5001820;28;20489;-63
2022/09/17 04:51:49;;;;;;;5.13;1.10;;;;;;;;;;5005465;28;20033;-63
2022/09/17 04:54:15;;;;;;;3.55;1.00;;;;;;;;;;4996546;28;20060;-63
2022/09/17 04:56:41;;;;;;;1.60;1.10;;;;;;;;;;5007240;28;20057;-63
2022/09/17 04:59:07;;;;;;;1.23;1.08;;;;;;;;;;5003378;28;20036;-63
2022/09/17 05:01:33;;;;;;;2.70;1.10;;;;;;;;;;5020825;28;20032;-63
2022/09/17 05:03:59;;;;;;;2.88;0.90;;;;;;;;;;5018853;28;20485;-63
2022/09/17 05:06:26;;;;;;;1.40;1.05;;;;;;;;;;5020164;28;20029;-63
2022/09/17 05:08:52;;;;;;;2.63;1.60;;;;;;;;;;5020886;28;20030;-63
2022/09/17 05:11:18;;;;;;;3.00;1.20;;;;;;;;;;5016953;28;20041;-63
2022/09/17 05:13:44;;;;;;;3.65;1.20;;;;;;;;;;5020842;28;20036;-63
2022/09/17 05:16:10;;;;;;;2.63;1.20;;;;;;;;;;5021126;28;20025;-63
2022/09/17 05:18:36;;;;;;;2.72;0.90;;;;;;;;;;5016039;28;20030;-63
2022/09/17 05:21:02;;;;;;;2.83;1.23;;;;;;;;;;5016704;28;20032;-63
2022/09/17 05:23:29;;;;;;;2.55;1.10;;;;;;;;;;5020372;28;20036;-63
2022/09/17 05:26:01;;;;;;;2.13;1.20;;;;;;;;;;5021249;28;20397;-63
2022/09/17 05:28:28;;;;;;;3.75;1.17;;;;;;;;;;5016933;28;20370;-63
2022/09/17 05:30:54;;;;;;;1.80;1.10;;;;;;;;;;5020390;28;20025;-63
2022/09/17 05:33:20;;;;;;;2.50;1.25;;;;;;;;;;5021111;28;20021;-63
2022/09/17 05:35:46;;;;;;;4.25;1.30;;;;;;;;;;5019904;28;20394;-63
2022/09/17 05:38:12;;;;;;;2.50;1.40;;;;;;;;;;5020856;28;20104;-63
2022/09/17 05:40:38;;;;;;;5.93;1.40;;;;;;;;;;5012003;28;20040;-63
2022/09/17 05:43:06;;;;;;;5.30;1.10;;;;;;;;;;5016159;28;20034;-63
2022/09/17 05:45:33;;;;;;;2.10;0.95;;;;;;;;;;5013843;28;20100;-63
2022/09/17 05:48:00;;;;;;;6.65;1.00;;;;;;;;;;5019431;28;20022;-63
2022/09/17 05:50:27;;;;;;;5.75;1.98;;;;;;;;;;5014888;28;20018;-63
2022/09/17 05:52:53;;;;;;;6.97;1.48;;;;;;;;;;5016567;28;20037;-63
2022/09/17 05:55:21;;;;;;;1.83;1.20;;;;;;;;;;5014851;28;20040;-63
2022/09/17 05:57:47;;;;;;;2.38;1.00;;;;;;;;;;5006978;28;20022;-63
2022/09/17 06:00:14;;;;;;;1.92;1.00;;;;;;;;;;5013794;28;20056;-63
2022/09/17 06:02:41;;;;;;;3.70;1.10;;;;;;;;;;5011179;28;20056;-63
2022/09/17 06:05:07;;;;;;;8.90;1.38;;;;;;;;;;5010224;28;20029;-63
2022/09/17 06:07:37;;;;;;;1.75;1.27;;;;;;;;;;5008945;28;20061;-63
2022/09/17 06:10:04;;;;;;;5.68;1.50;;;;;;;;;;5006506;28;20045;-63
2022/09/17 06:12:30;;;;;;;4.93;1.38;;;;;;;;;;5011980;28;20452;-63
2022/09/17 06:14:56;;;;;;;3.08;1.23;;;;;;;;;;5006635;28;20037;-63
2022/09/17 06:17:23;;;;;;;2.20;1.20;;;;;;;;;;5004540;28;20022;-63
2022/09/17 06:19:49;;;;;;;2.78;1.38;;;;;;;;;;5005762;28;20030;-63
2022/09/17 06:22:18;;;;;;;4.75;1.30;;;;;;;;;;5010549;28;20398;-63
2022/09/17 06:24:44;;;;;;;2.97;0.93;;;;;;;;;;5018929;28;20067;-63
2022/09/17 06:27:11;;;;;;;3.80;1.27;;;;;;;;;;5017291;28;20030;-63
2022/09/17 06:29:38;;;;;;;3.63;1.40;;;;;;;;;;5025365;28;20501;-63
2022/09/17 06:32:10;;;;;;;4.28;1.33;;;;;;;;;;5019621;28;20359;-63
2022/09/17 06:34:40;;;;;;;5.13;1.40;;;;;;;;;;5025241;28;20041;-63
2022/09/17 06:37:07;;;;;;;3.20;1.10;;;;;;;;;;5024012;28;20048;-63
2022/09/17 06:39:58;;;;;;;3.78;1.50;;;;;;;;;;5016638;28;20461;-63
2022/09/17 06:42:27;;;;;;;4.20;1.20;;;;;;;;;;5016056;28;20478;-63
2022/09/17 06:44:54;;;;;;;1.95;1.10;;;;;;;;;;4995265;28;20041;-63
2022/09/17 06:47:26;;;;;;;3.17;1.63;;;;;;;;;;5019439;28;20158;-63
2022/09/17 06:49:53;;;;;;;3.78;1.52;;;;;;;;;;5026720;28;20100;-63
2022/09/17 06:52:19;;;;;;;4.65;1.30;;;;;;;;;;5029978;28;20037;-63
2022/09/17 06:54:45;;;;;;;3.03;1.42;;;;;;;;;;5019928;28;20061;-63
2022/09/17 06:57:12;;;;;;;6.15;1.45;;;;;;;;;;5014424;28;20493;-63
2022/09/17 06:59:38;;;;;;;6.88;2.05;;;;;;;;;;5015220;28;20026;-63
2022/09/17 07:02:04;;;;;;;4.90;1.45;;;;;;;;;;5015437;28;20034;-63
2022/09/17 07:04:30;;;;;;;2.53;1.80;;;;;;;;;;5010439;28;20024;-63
2022/09/17 07:06:59;;;;;;;4.13;2.30;;;;;;;;;;5010779;28;20036;-63
2022/09/17 07:09:25;;;;;;;7.28;1.85;;;;;;;;;;5009612;28;20073;-63
2022/09/17 07:11:52;;;;;;;4.85;1.75;;;;;;;;;;5015397;28;20029;-63
2022/09/17 07:14:18;;;;;;;3.72;1.50;;;;;;;;;;5012454;28;20363;-63
2022/09/17 07:16:44;;;;;;;5.15;2.05;;;;;;;;;;5011160;28;20033;-63
2022/09/17 07:19:11;;;;;;;5.82;2.10;;;;;;;;;;5012547;28;20489;-63
2022/09/17 07:21:37;;;;;;;4.05;2.63;;;;;;;;;;5016328;28;20029;-63
2022/09/17 07:24:03;;;;;;;3.38;2.42;;;;;;;;;;5014241;28;20028;-63
2022/09/17 07:26:29;;;;;;;6.85;3.38;;;;;;;;;;5016582;28;20087;-63
2022/09/17 07:28:55;;;;;;;5.65;2.58;;;;;;;;;;5013811;28;20041;-63
2022/09/17 07:31:22;;;;;;;5.68;2.47;;;;;;;;;;5018234;28;20022;-63
2022/09/17 07:33:48;;;;;;;7.38;3.38;;;;;;;;;;5016573;28;20413;-63
2022/09/17 07:36:18;;;;;;;6.18;4.15;;;;;;;;;;5011821;28;20080;-63
2022/09/17 07:38:44;;;;;;;9.57;4.57;;;;;;;;;;5010797;28;20490;-63
2022/09/17 07:41:12;;;;;;;5.72;3.53;;;;;;;;;;5001017;28;20430;-63
2022/09/17 07:43:41;;;;;;;7.35;3.70;;;;;;;;;;5007572;28;20087;-63
2022/09/17 07:46:12;;;;;;;3.53;2.00;;;;;;;;;;5002132;28;20037;-63
2022/09/17 07:48:38;;;;;;;4.72;2.25;;;;;;;;;;5005593;28;20061;-63
2022/09/17 07:51:04;;;;;;;5.25;1.70;;;;;;;;;;5017767;28;20018;-63
2022/09/17 07:53:31;;;;;;;3.45;1.92;;;;;;;;;;5016416;28;20552;-63
2022/09/17 07:55:58;;;;;;;4.97;2.05;;;;;;;;;;5006896;28;20390;-63
2022/09/17 07:58:29;;;;;;;6.22;1.80;;;;;;;;;;5005035;28;20026;-63
2022/09/17 08:01:02;;;;;;;2.58;1.83;;;;;;;;;;5003184;28;20029;-63
2022/09/17 08:03:28;;;;;;;2.58;1.80;;;;;;;;;;4995085;28;20034;-63
2022/09/17 08:05:54;;;;;;;6.65;1.80;;;;;;;;;;5008731;28;20034;-63
2022/09/17 08:08:20;;;;;;;4.57;1.63;;;;;;;;;;5003409;28;20030;-63
2022/09/17 08:10:46;;;;;;;4.53;1.70;;;;;;;;;;5001618;28;20548;-63
2022/09/17 08:13:12;;;;;;;2.67;1.50;;;;;;;;;;5001629;28;20117;-63
2022/09/17 08:15:38;;;;;;;4.15;1.52;;;;;;;;;;5006494;28;20402;-63
2022/09/17 08:18:04;;;;;;;5.75;1.60;;;;;;;;;;5012545;28;20508;-64
2022/09/17 08:20:31;;;;;;;3.42;1.35;;;;;;;;;;5009327;28;20033;-64
2022/09/17 08:23:00;;;;;;;8.35;1.77;;;;;;;;;;5000673;28;20041;-63
2022/09/17 08:25:26;;;;;;;6.32;1.77;;;;;;;;;;5010102;28;20410;-63
2022/09/17 08:27:54;;;;;;;4.88;1.30;;;;;;;;;;5013397;28;20026;-63
2022/09/17 08:30:20;;;;;;;6.35;1.23;;;;;;;;;;5005425;28;20057;-63
2022/09/17 08:32:46;;;;;;;2.17;1.00;;;;;;;;;;5003208;28;20022;-64
2022/09/17 08:35:12;;;;;;;5.88;1.40;;;;;;;;;;5008463;28;20030;-66
2022/09/17 08:37:38;;;;;;;2.83;1.27;;;;;;;;;;5003338;28;20025;-64
2022/09/17 08:40:05;;;;;;;2.28;1.20;;;;;;;;;;5007709;28;20425;-64
2022/09/17 08:42:39;;;;;;;2.72;1.00;;;;;;;;;;5001743;28;20025;-64
2022/09/17 08:45:09;;;;;;;3.42;1.02;;;;;;;;;;5004976;28;20036;-64
2022/09/17 08:47:39;;;;;;;2.05;1.05;;;;;;;;;;5000419;28;20058;-64
2022/09/17 08:50:18;;;;;;;2.10;1.20;;;;;;;;;;4996322;28;20402;-64
2022/09/17 08:52:53;;;;;;;4.13;1.33;;;;;;;;;;5002582;28;20414;-64
2022/09/17 08:55:25;;;;;;;2.97;1.08;;;;;;;;;;5001554;28;20030;-64
2022/09/17 08:57:54;;;;;;;4.07;1.30;;;;;;;;;;4997910;28;20422;-64
2022/09/17 09:00:21;;;;;;;7.78;1.35;;;;;;;;;;5009548;28;20506;-64
2022/09/17 09:02:50;;;;;;;4.07;1.85;;;;;;;;;;5005249;28;20108;-64
2022/09/17 09:05:20;;;;;;;2.70;0.75;;;;;;;;;;5000432;28;20036;-64
2022/09/17 09:07:51;;;;;;;4.53;1.00;;;;;;;;;;5010432;28;20034;-64
2022/09/17 09:10:22;;;;;;;2.45;0.75;;;;;;;;;;4999314;28;20466;-64
2022/09/17 09:12:49;;;;;;;2.95;0.80;;;;;;;;;;5003721;28;20022;-64
2022/09/17 09:15:21;;;;;;;2.97;0.70;;;;;;;;;;5001393;28;20409;-64
2022/09/17 09:17:49;;;;;;;3.40;0.63;;;;;;;;;;5005465;28;20026;-64
2022/09/17 09:20:17;;;;;;;3.95;0.55;;;;;;;;;;4995981;28;20727;-64
2022/09/17 09:22:48;;;;;;;2.63;0.55;;;;;;;;;;4992609;28;20025;-65
2022/09/17 09:25:30;;;;;;;2.80;0.88;;;;;;;;;;4992721;28;20541;-65
2022/09/17 09:28:01;;;;;;;1.08;0.50;;;;;;;;;;4998724;28;20045;-64
2022/09/17 09:30:31;;;;;;;2.20;0.60;;;;;;;;;;4995475;28;20030;-64
2022/09/17 09:32:57;;;;;;;2.78;0.57;;;;;;;;;;4993043;28;20396;-64
2022/09/17 09:35:26;;;;;;;5.50;0.90;;;;;;;;;;4992688;28;20030;-64
2022/09/17 09:37:55;;;;;;;3.97;0.40;;;;;;;;;;4995823;28;20038;-64
2022/09/17 09:40:33;;;;;;;3.95;0.65;;;;;;;;;;4991528;28;20384;-64
2022/09/17 09:43:01;;;;;;;3.63;0.80;;;;;;;;;;5006070;28;20027;-65
2022/09/17 09:45:41;;;;;;;2.42;0.63;;;;;;;;;;4996360;28;20153;-65
2022/09/17 09:48:46;;;;;;;3.75;0.40;;;;;;;;;;5008395;28;20037;-65
2022/09/17 09:51:12;;;;;;;1.25;0.52;;;;;;;;;;4972557;28;20066;-64
2022/09/17 09:53:41;;;;;;;4.72;0.70;;;;;;;;;;4972924;28;20515;-64
2022/09/17 09:56:27;;;;;;;2.08;0.50;;;;;;;;;;4971386;28;20043;-65
2022/09/17 09:58:53;;;;;;;3.70;0.70;;;;;;;;;;4983169;28;20035;-65
2022/09/17 10:01:21;;;;;;;2.50;0.75;;;;;;;;;;4988357;28;20030;-65
2022/09/17 10:03:50;;;;;;;2.28;1.02;;;;;;;;;;4987468;28;20049;-65
2022/09/17 10:06:18;;;;;;;1.10;0.63;;;;;;;;;;4989938;28;20065;-64
2022/09/17 10:08:50;;;;;;;1.48;0.63;;;;;;;;;;4989239;28;20125;-64
2022/09/17 10:11:20;;;;;;;1.75;0.65;;;;;;;;;;4983894;28;20074;-64
2022/09/17 10:13:46;;;;;;;1.83;0.50;;;;;;;;;;4979480;28;20046;-65
2022/09/17 10:16:16;;;;;;;2.67;0.73;;;;;;;;;;4979636;28;20069;-64
2022/09/17 10:18:43;;;;;;;1.35;1.08;;;;;;;;;;4980592;28;20041;-64
2022/09/17 10:21:20;;;;;;;4.88;0.68;;;;;;;;;;4982153;28;20029;-65
2022/09/17 10:23:46;;;;;;;6.40;0.65;;;;;;;;;;4996826;28;20038;-64
2022/09/17 10:26:31;;;;;;;5.15;0.70;;;;;;;;;;5000105;28;20026;-65
2022/09/17 10:29:11;;;;;;;1.35;0.70;;;;;;;;;;5017474;28;20045;-64
2022/09/17 10:31:48;;;;;;;2.70;0.63;;;;;;;;;;5005009;28;20018;-65
2022/09/17 10:34:20;;;;;;;2.90;0.68;;;;;;;;;;5012226;28;20417;-65
2022/09/17 10:36:47;;;;;;;2.53;0.67;;;;;;;;;;5012386;28;20536;-64
2022/09/17 10:39:19;;;;;;;2.63;0.70;;;;;;;;;;5019887;28;20037;-64
2022/09/17 10:41:55;;;;;;;3.92;0.80;;;;;;;;;;5009022;28;20038;-64
2022/09/17 10:44:23;;;;;;;4.55;0.70;;;;;;;;;;5007667;28;20102;-64
2022/09/17 10:46:49;;;;;;;1.75;0.50;;;;;;;;;;5010257;28;20378;-65
2022/09/17 10:49:35;;;;;;;5.60;1.23;;;;;;;;;;5005879;28;20398;-65
2022/09/17 10:52:10;;;;;;;3.28;0.70;;;;;;;;;;5004819;28;20034;-65
2022/09/17 10:54:39;;;;;;;3.05;0.65;;;;;;;;;;5003887;28;20409;-65
2022/09/17 10:57:06;;;;;;;2.72;1.23;;;;;;;;;;5003956;28;20062;-65
2022/09/17 10:59:42;;;;;;;1.38;0.85;;;;;;;;;;4999482;28;20054;-65
2022/09/17 11:02:39;;;;;;;1.92;0.50;;;;;;;;;;5000937;28;20065;-65
2022/09/17 11:05:24;;;;;;;6.15;0.90;;;;;;;;;;5001494;28;21633;-65
2022/09/17 11:07:56;;;;;;;2.47;0.60;;;;;;;;;;5004735;28;20052;-65
2022/09/17 11:10:31;;;;;;;2.10;0.70;;;;;;;;;;5009932;28;20038;-65
2022/09/17 11:13:18;;;;;;;4.85;0.80;;;;;;;;;;4999984;28;20410;-65
2022/09/17 11:15:53;;;;;;;2.88;0.60;;;;;;;;;;5002435;28;20076;-65
2022/09/17 11:18:22;;;;;;;1.58;0.47;;;;;;;;;;5012581;28;20108;-64
2022/09/17 11:21:07;;;;;;;5.40;0.70;;;;;;;;;;5011695;28;20030;-66
2022/09/17 11:23:36;;;;;;;7.55;0.80;;;;;;;;;;5012798;28;20030;-64
2022/09/17 11:26:02;;;;;;;2.50;0.70;;;;;;;;;;5008858;28;20390;-64
2022/09/17 11:28:53;;;;;;;1.35;0.55;;;;;;;;;;5010897;28;20022;-64
2022/09/17 11:31:28;;;;;;;7.13;0.90;;;;;;;;;;5009445;28;20112;-64
2022/09/17 11:34:13;;;;;;;1.70;0.57;;;;;;;;;;5008918;28;20034;-64
2022/09/17 11:36:39;;;;;;;2.92;0.82;;;;;;;;;;5012342;28;20429;-64
2022/09/17 11:39:13;;;;;;;0.88;0.70;;;;;;;;;;5008787;28;20052;-64
2022/09/17 11:41:41;;;;;;;3.03;0.80;;;;;;;;;;5008257;28;20022;-64
2022/09/17 11:44:08;;;;;;;1.00;0.70;;;;;;;;;;5003676;28;20037;-64
2022/09/17 11:46:42;;;;;;;5.15;0.80;;;;;;;;;;5008036;28;20026;-64
2022/09/17 11:49:12;;;;;;;4.10;0.75;;;;;;;;;;5009797;28;20466;-64
2022/09/17 11:51:41;;;;;;;1.38;0.68;;;;;;;;;;5005897;28;20015;-64
2022/09/17 11:54:22;;;;;;;3.65;0.70;;;;;;;;;;5002869;28;20026;-64
2022/09/17 11:56:50;;;;;;;6.15;0.73;;;;;;;;;;5014050;28;20029;-64
2022/09/17 11:59:20;;;;;;;2.03;0.80;;;;;;;;;;5010957;28;20049;-64
2022/09/17 12:01:51;;;;;;;1.63;0.63;;;;;;;;;;5000389;28;20037;-64
2022/09/17 12:04:31;;;;;;;1.13;0.70;;;;;;;;;;5008583;28;20032;-64
2022/09/17 12:07:01;;;;;;;1.73;0.63;;;;;;;;;;5012561;28;20101;-64
2022/09/17 12:09:29;;;;;;;3.30;0.90;;;;;;;;;;4998952;28;20125;-64
2022/09/17 12:12:14;;;;;;;5.45;0.70;;;;;;;;;;5013380;28;20022;-64
2022/09/17 12:14:49;;;;;;;3.83;0.73;;;;;;;;;;5014510;28;20037;-64
2022/09/17 12:17:23;;;;;;;2.42;0.75;;;;;;;;;;5006900;28;20026;-64
2022/09/17 12:19:58;;;;;;;4.93;0.73;;;;;;;;;;5005872;28;20402;-64
2022/09/17 12:22:27;;;;;;;3.20;0.93;;;;;;;;;;5008332;28;20034;-64
2022/09/17 12:24:54;;;;;;;3.25;0.70;;;;;;;;;;5010665;28;20417;-64
2022/09/17 12:27:25;;;;;;;3.60;0.68;;;;;;;;;;5007048;28;20029;-64
2022/09/17 12:29:51;;;;;;;2.30;0.80;;;;;;;;;;5009357;28;20025;-64
2022/09/17 12:32:32;;;;;;;1.33;0.80;;;;;;;;;;5047250;28;20025;-64
2022/09/17 12:35:20;;;;;;;1.52;0.50;;;;;;;;;;5008301;28;20179;-65
2022/09/17 12:38:05;;;;;;;1.25;0.60;;;;;;;;;;5009031;28;20052;-65
2022/09/17 12:40:31;;;;;;;5.13;0.82;;;;;;;;;;5012613;28;20029;-65
2022/09/17 12:43:01;;;;;;;1.20;0.60;;;;;;;;;;5010404;28;20041;-65
2022/09/17 12:45:36;;;;;;;1.27;0.60;;;;;;;;;;5009826;28;20434;-65
2022/09/17 12:48:29;;;;;;;0.90;0.60;;;;;;;;;;5012125;28;20114;-65
2022/09/17 12:51:14;;;;;;;4.03;0.70;;;;;;;;;;5011951;28;20034;-65
2022/09/17 12:53:55;;;;;;;3.80;0.95;;;;;;;;;;5002219;28;20040;-65
2022/09/17 12:56:21;;;;;;;1.77;0.65;;;;;;;;;;5002085;28;20045;-65
2022/09/17 12:58:56;;;;;;;2.70;0.60;;;;;;;;;;5001885;28;20033;-65
2022/09/17 13:01:35;;;;;;;4.18;0.47;;;;;;;;;;5009012;28;20032;-65
2022/09/17 13:04:04;;;;;;;2.60;0.75;;;;;;;;;;5006373;28;20474;-64
2022/09/17 13:06:30;;;;;;;1.48;0.50;;;;;;;;;;5005997;28;20045;-64
2022/09/17 13:09:04;;;;;;;4.65;0.45;;;;;;;;;;5014931;28;20029;-65
2022/09/17 13:11:49;;;;;;;2.00;0.73;;;;;;;;;;5009706;28;20040;-64
2022/09/17 13:14:33;;;;;;;1.85;0.60;;;;;;;;;;5008081;28;20030;-67
2022/09/17 13:17:02;;;;;;;4.95;0.75;;;;;;;;;;5010934;28;20049;-64
2022/09/17 13:19:38;;;;;;;4.90;0.68;;;;;;;;;;5002709;28;20034;-65
2022/09/17 13:22:25;;;;;;;4.55;0.70;;;;;;;;;;5011632;28;20125;-64
2022/09/17 13:25:02;;;;;;;1.00;0.55;;;;;;;;;;5009745;28;20490;-64
2022/09/17 13:27:28;;;;;;;1.25;0.60;;;;;;;;;;4998295;28;20034;-64
2022/09/17 13:29:54;;;;;;;4.38;0.63;;;;;;;;;;5013483;28;20092;-64
2022/09/17 13:32:35;;;;;;;2.45;0.50;;;;;;;;;;5008693;28;20390;-63
2022/09/17 13:35:13;;;;;;;2.20;0.68;;;;;;;;;;5009715;28;20391;-64
2022/09/17 13:37:52;;;;;;;1.70;0.57;;;;;;;;;;5007239;28;20041;-64
2022/09/17 13:40:23;;;;;;;3.70;0.45;;;;;;;;;;5005705;28;20030;-64
2022/09/17 13:43:13;;;;;;;1.87;0.63;;;;;;;;;;5012851;28;20042;-64
2022/09/17 13:45:57;;;;;;;2.15;0.50;;;;;;;;;;5002389;28;20080;-64
2022/09/17 13:48:25;;;;;;;1.33;0.50;;;;;;;;;;5005384;28;20021;-64
2022/09/17 13:50:52;;;;;;;1.50;0.60;;;;;;;;;;5011834;28;20391;-64
2022/09/17 13:53:21;;;;;;;2.95;0.88;;;;;;;;;;5009104;28;20034;-64
2022/09/17 13:55:51;;;;;;;1.67;0.50;;;;;;;;;;5005190;28;20026;-64
2022/09/17 13:58:17;;;;;;;1.60;0.65;;;;;;;;;;5006095;28;20410;-64
2022/09/17 14:00:55;;;;;;;3.83;1.02;;;;;;;;;;5005859;28;20455;-64
2022/09/17 14:03:32;;;;;;;2.30;0.30;;;;;;;;;;5008454;28;20034;-64
2022/09/17 14:06:08;;;;;;;2.00;0.50;;;;;;;;;;5006182;28;20097;-64
2022/09/17 14:08:43;;;;;;;6.13;0.70;;;;;;;;;;5010475;28;20037;-64
2022/09/17 14:11:25;;;;;;;1.77;0.50;;;;;;;;;;5004950;28;20040;-64
2022/09/17 14:13:51;;;;;;;5.15;1.40;;;;;;;;;;5001323;28;20021;-64
2022/09/17 14:16:34;;;;;;;1.42;0.43;;;;;;;;;;5009236;28;20084;-64
2022/09/17 14:19:15;;;;;;;3.05;0.80;;;;;;;;;;5002604;28;20371;-64
2022/09/17 14:21:43;;;;;;;7.28;0.75;;;;;;;;;;5009666;28;20026;-64
2022/09/17 14:24:27;;;;;;;3.35;0.70;;;;;;;;;;5003423;28;20029;-64
2022/09/17 14:26:56;;;;;;;4.13;0.90;;;;;;;;;;5009239;28;20026;-64
2022/09/17 14:29:25;;;;;;;1.95;0.52;;;;;;;;;;5010596;28;20022;-64
2022/09/17 14:31:52;;;;;;;4.38;0.70;;;;;;;;;;5009128;28;20475;-64
2022/09/17 14:34:20;;;;;;;2.85;0.55;;;;;;;;;;5010837;28;20029;-64
2022/09/17 14:36:47;;;;;;;1.10;0.47;;;;;;;;;;5004620;28;20041;-64
2022/09/17 14:39:21;;;;;;;2.03;0.80;;;;;;;;;;5010269;28;20028;-64
2022/09/17 14:41:48;;;;;;;3.70;0.68;;;;;;;;;;5003063;28;20021;-64
2022/09/17 14:44:31;;;;;;;1.17;0.55;;;;;;;;;;5001903;28;20021;-64
2022/09/17 14:47:12;;;;;;;2.13;0.47;;;;;;;;;;5003570;28;20064;-64
2022/09/17 14:49:39;;;;;;;0.93;0.32;;;;;;;;;;5013766;28;20030;-64
2022/09/17 14:52:24;;;;;;;5.35;0.82;;;;;;;;;;5013908;28;20057;-64
2022/09/17 14:55:09;;;;;;;1.83;0.70;;;;;;;;;;5000370;28;20028;-64
2022/09/17 14:57:36;;;;;;;4.05;0.57;;;;;;;;;;5002291;28;20483;-64
2022/09/17 15:00:04;;;;;;;2.95;0.60;;;;;;;;;;5009500;28;20437;-64
2022/09/17 15:02:34;;;;;;;4.68;0.60;;;;;;;;;;5013995;28;20525;-64
2022/09/17 15:05:01;;;;;;;1.88;0.55;;;;;;;;;;5006748;28;20025;-64